Pagrindinis puslapis
METAR-TAF:

METAR-TAF

Oro uostai :

Kiutahija, Turkija

platuma: 39-06-41N, ilguma: 30-07-48E, Aukštis: 1013 m

METAR: trūkstamas

Laikas: 15:12 (12:12 UTC)

Prognozė

Ataskaita buvo paskelbta 1 valandą ir 32 minutes, ne 10:40 UTC
Prognozė galioja nuo 23 metu 12 UTC su 23 metu 21 UTC
Vėjas 12 kt iš Šiaurės Vakarų
Matomumas: 6000 m
Išsisklaidę debesys ne aukštis 4000 ft
Su prošvaistėmis ne aukštis 10000 ft
Laikinai
nuo 23 metu 12 UTC su 23 metu 16 UTC
Su prošvaistėmis ne aukštis 2500 ft
Apsiniaukę ne aukštis 8000 ft
sniegas

TAF: LTBZ 231040Z 2312/2321 32012KT 6000 SCT040 BKN100 TEMPO 2312/2316 -SN BKN025 OVC080

Orai ataskaitas ir orų prognozės (METAR, TAF).

turimą stotys yra geltonos ir raudonos taškus žemėlapyje.

Perkelti pele per norėdami pamatyti stoties vardą.

Tada spustelėkite, norėdami matyti oro stebėjimo ir prognozės.

Norėdami pakeisti žemėlapį: spustelėkite ant žalios mygtukų su juodo kryžiaus žemyn,; žalią mygtuką su brūkšneliu, jei norite nutolinti; arba žalių rodyklių gretimoms žemėlapius.


METAR-TAF: